Terminal Aerodrome Forecast
Issued by NWS Cleveland, OH

Home | Current Version | Previous Version | Graphics & Text | Print | Product List | Glossary On
Versions: 1 2 3 4 5 6 7 8 9 10 11 12 13 14 15 16 17 18 19
000
FTUS41 KCLE 291100
TAFCAK
TAF
KCAK 291120Z 2912/3012 24006KT P6SM FEW120 OVC200
     FM291630 26012G20KT P6SM BKN035
     FM292300 29008KT P6SM SCT025 OVC035
     FM300400 30008KT P6SM VCSH SCT015 OVC025=

USA.gov is the U.S. government's official web portal to all federal, state and local government web resources and services.